Time;durP1;ratioP1;P1;durP2;ratioP2;P2;SDS_P1;SDS_P2;PMS_P1;PMS_P2;Temp;Humidity;BMP_temperature;BMP_pressure;BME280_temperature;BME280_humidity;BME280_pressure;Samples;Min_cycle;Max_cycle;Signal;HPM_P1;HPM_P2
2023/07/06 00:02:10;;;;;;;9.85;5.30;;;;;;;22.38;60.39;99496.84;4293953;33;20724;-93
2023/07/06 00:04:38;;;;;;;10.05;5.53;;;;;;;22.41;60.39;99501.03;4282087;33;20200;-92
2023/07/06 00:07:10;;;;;;;8.63;5.80;;;;;;;22.52;60.40;99500.97;4294733;33;20091;-93
2023/07/06 00:09:39;;;;;;;8.18;4.97;;;;;;;22.71;60.41;99506.37;4284457;33;20096;-92
2023/07/06 00:12:04;;;;;;;11.20;5.20;;;;;;;22.72;60.41;99499.28;4291765;33;20131;-94
2023/07/06 00:14:31;;;;;;;12.37;5.82;;;;;;;22.63;60.41;99503.53;4292416;33;20140;-94
2023/07/06 00:17:12;;;;;;;9.30;4.97;;;;;;;22.40;60.40;99499.34;4281310;33;20119;-93
2023/07/06 00:19:38;;;;;;;7.87;5.18;;;;;;;22.30;60.39;99497.50;4296706;33;20159;-93
2023/07/06 00:22:04;;;;;;;8.38;5.22;;;;;;;22.33;60.39;99496.41;4294078;33;20132;-92
2023/07/06 00:24:29;;;;;;;9.02;5.25;;;;;;;22.44;60.40;99511.38;4282184;33;20138;-94
2023/07/06 00:26:55;;;;;;;10.00;5.43;;;;;;;22.51;60.40;99504.59;4272739;33;20104;-93
2023/07/06 00:29:23;;;;;;;8.77;5.07;;;;;;;22.39;60.39;99508.28;4294112;33;20162;-94
2023/07/06 00:32:04;;;;;;;10.27;5.20;;;;;;;22.31;60.39;99498.34;4292382;33;20135;-94
2023/07/06 00:34:44;;;;;;;8.10;4.60;;;;;;;22.23;60.39;99504.25;4284936;33;20478;-94
2023/07/06 00:37:12;;;;;;;9.13;5.03;;;;;;;22.24;60.38;99507.75;4286662;33;20530;-93
2023/07/06 00:39:38;;;;;;;7.50;4.62;;;;;;;22.31;60.39;99495.69;4288243;33;20080;-91
2023/07/06 00:42:05;;;;;;;10.32;4.87;;;;;;;22.21;60.39;99506.22;4294470;33;20197;-92
2023/07/06 00:44:53;;;;;;;8.50;5.57;;;;;;;22.27;60.39;99508.38;4306006;33;20095;-94
2023/07/06 00:47:23;;;;;;;10.82;5.00;;;;;;;22.06;60.38;99510.16;4305978;33;20102;-92
2023/07/06 00:49:48;;;;;;;8.75;4.90;;;;;;;22.09;60.38;99499.31;4282026;33;20095;-92
2023/07/06 00:52:15;;;;;;;11.65;4.82;;;;;;;22.10;60.39;99498.31;4281622;33;20164;-93
2023/07/06 00:54:40;;;;;;;8.95;4.47;;;;;;;22.17;60.39;99506.59;4294170;33;20220;-95
2023/07/06 00:57:07;;;;;;;8.50;4.00;;;;;;;22.18;60.39;99503.81;4293887;33;20449;-91
2023/07/06 00:59:33;;;;;;;8.00;4.50;;;;;;;22.24;60.37;99502.44;4287012;33;20117;-93
2023/07/06 01:02:01;;;;;;;8.10;4.55;;;;;;;22.10;60.39;99508.94;4290409;33;20432;-93
2023/07/06 01:04:26;;;;;;;8.95;4.50;;;;;;;22.20;60.39;99511.63;4294006;33;20116;-92
2023/07/06 01:06:52;;;;;;;8.50;4.28;;;;;;;22.18;60.39;99514.41;4281982;33;20108;-94
2023/07/06 01:09:17;;;;;;;6.55;3.70;;;;;;;22.02;60.37;99516.66;4281275;33;20135;-93
2023/07/06 01:11:43;;;;;;;7.20;4.32;;;;;;;22.08;60.38;99510.88;4281703;33;20426;-92
2023/07/06 01:14:12;;;;;;;6.07;4.00;;;;;;;22.23;60.39;99514.03;4293386;33;20138;-93
2023/07/06 01:16:56;;;;;;;7.15;4.20;;;;;;;22.07;60.38;99509.19;4294134;33;20130;-93
2023/07/06 01:20:10;;;;;;;7.87;3.72;;;;;;;21.95;60.36;99512.81;4318805;33;20452;-92
2023/07/06 01:22:41;;;;;;;8.38;4.05;;;;;;;22.00;60.37;99507.97;4287494;33;20109;-91
2023/07/06 01:25:41;;;;;;;6.65;3.70;;;;;;;21.73;60.36;99511.94;4320119;33;20142;-90
2023/07/06 01:28:15;;;;;;;7.12;4.05;;;;;;;21.90;60.37;99512.34;4302358;33;20095;-91
2023/07/06 01:31:02;;;;;;;7.20;3.78;;;;;;;21.75;60.36;99512.63;4319257;33;20209;-92
2023/07/06 01:33:52;;;;;;;7.47;3.58;;;;;;;21.90;60.37;99510.53;4319774;33;20131;-92
2023/07/06 01:36:29;;;;;;;6.93;4.30;;;;;;;21.93;60.37;99514.75;4286046;33;20223;-92
2023/07/06 01:39:16;;;;;;;7.15;3.80;;;;;;;21.86;60.36;99510.94;4301744;33;20171;-92
2023/07/06 01:41:41;;;;;;;7.20;3.78;;;;;;;21.83;60.36;99512.03;4330561;33;20065;-93
2023/07/06 01:44:12;;;;;;;7.25;4.12;;;;;;;22.00;60.37;99508.84;4301379;33;20154;-92
2023/07/06 01:46:43;;;;;;;6.60;3.47;;;;;;;21.84;60.37;99504.91;4307840;33;20116;-94
2023/07/06 01:49:08;;;;;;;6.00;4.00;;;;;;;21.77;60.36;99504.59;4296100;33;20469;-93
2023/07/06 01:52:16;;;;;;;8.23;3.92;;;;;;;21.54;60.34;99503.81;4295317;33;20143;-92
2023/07/06 01:55:20;;;;;;;6.65;3.67;;;;;;;21.73;60.36;99492.53;4308901;33;20142;-93
2023/07/06 01:58:11;;;;;;;7.55;3.97;;;;;;;21.56;60.34;99507.19;4319147;33;20269;-92
2023/07/06 02:00:38;;;;;;;6.28;3.55;;;;;;;21.43;60.35;99495.88;4319463;33;20790;-91
2023/07/06 02:03:05;;;;;;;8.18;3.65;;;;;;;21.40;60.33;99502.28;4280825;33;20104;-91
2023/07/06 02:05:31;;;;;;;8.80;3.65;;;;;;;21.41;60.34;99503.97;4301880;33;20184;-91
2023/07/06 02:07:56;;;;;;;7.12;3.53;;;;;;;21.26;60.34;99515.75;4295130;33;20163;-92
2023/07/06 02:10:22;;;;;;;12.18;3.45;;;;;;;21.16;60.32;99509.50;4294971;33;20477;-93
2023/07/06 02:12:47;;;;;;;5.55;3.72;;;;;;;21.12;60.33;99510.72;4289197;33;20233;-93
2023/07/06 02:15:22;;;;;;;7.68;3.35;;;;;;;21.25;60.33;99505.31;4295071;33;20504;-94
2023/07/06 02:17:47;;;;;;;6.65;3.10;;;;;;;21.16;60.32;99506.84;4288171;33;20732;-93
2023/07/06 02:20:15;;;;;;;7.20;4.25;;;;;;;21.16;60.33;99506.84;4283138;33;20136;-93
2023/07/06 02:22:41;;;;;;;6.87;3.15;;;;;;;20.97;60.32;99512.75;4296059;33;20088;-93
2023/07/06 02:25:07;;;;;;;6.65;3.62;;;;;;;21.10;60.33;99510.00;4283759;33;20182;-92
2023/07/06 02:27:32;;;;;;;7.55;3.50;;;;;;;21.10;60.33;99518.78;4295148;33;20108;-90
2023/07/06 02:29:59;;;;;;;7.93;3.80;;;;;;;20.98;60.32;99517.09;4280219;33;20088;-92
2023/07/06 02:32:25;;;;;;;5.22;3.33;;;;;;;21.08;60.32;99522.50;4288270;33;20093;-94
2023/07/06 02:34:51;;;;;;;5.68;3.05;;;;;;;21.08;60.32;99526.00;4295387;33;20111;-91
2023/07/06 02:37:16;;;;;;;5.45;2.97;;;;;;;20.97;60.32;99526.00;4282290;33;20131;-91
2023/07/06 02:39:41;;;;;;;5.93;2.92;;;;;;;20.99;60.32;99532.00;4281825;33;20126;-90
2023/07/06 02:42:07;;;;;;;6.82;2.72;;;;;;;21.13;60.33;99536.22;4293673;33;20150;-91
2023/07/06 02:44:33;;;;;;;9.65;3.30;;;;;;;21.11;60.33;99532.84;4293717;33;20150;-90
2023/07/06 02:47:05;;;;;;;5.20;3.15;;;;;;;21.18;60.33;99539.34;4294071;33;20111;-91
2023/07/06 02:49:32;;;;;;;5.55;3.12;;;;;;;21.14;60.33;99538.75;4273411;33;20084;-90
2023/07/06 02:52:00;;;;;;;4.82;2.85;;;;;;;21.21;60.33;99544.37;4295562;33;20109;-92
2023/07/06 02:54:25;;;;;;;5.57;2.78;;;;;;;21.29;60.34;99549.09;4328495;33;20163;-89
2023/07/06 02:56:51;;;;;;;5.40;3.05;;;;;;;21.35;60.34;99545.97;4320219;33;20092;-90
2023/07/06 02:59:16;;;;;;;5.15;2.97;;;;;;;21.42;60.34;99544.53;4294343;33;20121;-90
2023/07/06 03:01:42;;;;;;;4.87;2.80;;;;;;;21.36;60.34;99537.91;4283058;33;20151;-89
2023/07/06 03:04:10;;;;;;;5.30;2.90;;;;;;;21.36;60.34;99534.44;4295155;33;20918;-90
2023/07/06 03:06:39;;;;;;;5.37;3.15;;;;;;;21.32;60.34;99540.94;4296688;33;20108;-91
2023/07/06 03:09:05;;;;;;;6.70;3.10;;;;;;;21.38;60.34;99546.56;4300261;33;20099;-89
2023/07/06 03:11:36;;;;;;;5.40;3.08;;;;;;;21.42;60.35;99544.53;4303766;33;20108;-91
2023/07/06 03:14:02;;;;;;;5.12;2.78;;;;;;;21.43;60.35;99538.25;4295757;33;20100;-90
2023/07/06 03:16:28;;;;;;;4.37;2.97;;;;;;;21.53;60.35;99535.69;4306623;33;20186;-91
2023/07/06 03:18:53;;;;;;;5.30;2.95;;;;;;;21.62;60.35;99548.22;4319294;33;20100;-91
2023/07/06 03:21:20;;;;;;;5.85;2.70;;;;;;;21.53;60.35;99548.94;4282229;33;20116;-92
2023/07/06 03:23:46;;;;;;;4.50;2.42;;;;;;;21.66;60.36;99542.53;4294325;33;20108;-91
2023/07/06 03:26:13;;;;;;;6.22;3.12;;;;;;;21.64;60.36;99546.28;4282548;33;20115;-90
2023/07/06 03:28:40;;;;;;;5.57;2.65;;;;;;;21.67;60.36;99546.88;4294574;33;20112;-90
2023/07/06 03:31:06;;;;;;;8.98;2.65;;;;;;;21.76;60.36;99542.63;4282806;33;20159;-93
2023/07/06 03:34:23;;;;;;;4.35;2.65;;;;;;;21.80;60.36;99530.84;4282531;33;20131;-92
2023/07/06 03:36:48;;;;;;;3.53;2.35;;;;;;;21.78;60.36;99546.03;4248341;33;20141;-92
2023/07/06 03:39:14;;;;;;;6.95;2.70;;;;;;;21.87;60.36;99544.41;4248267;33;20137;-90
2023/07/06 03:41:39;;;;;;;5.65;2.40;;;;;;;21.88;60.37;99552.22;4252589;33;20139;-91
2023/07/06 03:44:24;;;;;;;;;;;;;;;;;;;;;
2023/07/06 03:46:49;;;;;;;3.05;1.90;;;;;;;21.81;60.36;99561.66;4294171;33;34415;-90
2023/07/06 03:49:15;;;;;;;4.90;2.12;;;;;;;21.73;60.36;99574.66;4318656;33;20114;-91
2023/07/06 03:51:45;;;;;;;4.55;2.53;;;;;;;21.64;60.36;99570.12;4294625;33;20343;-92
2023/07/06 03:54:11;;;;;;;7.97;2.42;;;;;;;21.69;60.35;99571.44;4296378;33;20112;-93
2023/07/06 03:56:37;;;;;;;4.20;2.15;;;;;;;21.68;60.36;99574.19;4282725;33;20134;-90
2023/07/06 03:59:04;;;;;;;6.35;2.50;;;;;;;21.71;60.37;99582.75;4294981;33;20155;-92
2023/07/06 04:01:31;;;;;;;2.65;1.80;;;;;;;21.56;60.36;99580.50;4282799;33;20712;-90
2023/07/06 04:03:57;;;;;;;4.93;2.47;;;;;;;21.56;60.36;99581.34;4319532;33;20100;-91
2023/07/06 04:06:26;;;;;;;7.57;2.60;;;;;;;21.57;60.36;99598.06;4294444;33;20162;-91
2023/07/06 04:08:53;;;;;;;5.85;2.60;;;;;;;21.36;60.34;99604.09;4282231;33;20139;-91
2023/07/06 04:11:21;;;;;;;5.45;2.45;;;;;;;21.40;60.35;99605.53;4282002;33;20099;-92
2023/07/06 04:13:47;;;;;;;7.00;2.80;;;;;;;21.64;60.36;99602.75;4294084;33;20490;-91
2023/07/06 04:16:16;;;;;;;5.78;2.10;;;;;;;21.61;60.35;99610.09;4282323;33;20122;-92
2023/07/06 04:18:45;;;;;;;6.40;2.00;;;;;;;21.68;60.36;99614.78;4306098;33;20814;-90
2023/07/06 04:21:15;;;;;;;4.45;2.35;;;;;;;21.74;60.36;99622.22;4282342;33;20124;-90
2023/07/06 04:23:40;;;;;;;5.80;1.95;;;;;;;21.52;60.35;99624.06;4306003;33;20134;-90
2023/07/06 04:26:07;;;;;;;5.12;2.25;;;;;;;21.68;60.36;99616.59;4294266;33;20153;-92
2023/07/06 04:28:32;;;;;;;5.65;2.30;;;;;;;21.85;60.36;99612.59;4282726;33;20100;-92
2023/07/06 04:30:57;;;;;;;5.68;2.22;;;;;;;21.87;60.37;99616.81;4282645;33;20112;-91
2023/07/06 04:33:23;;;;;;;6.95;2.00;;;;;;;21.73;60.36;99617.91;4319312;33;20439;-91
2023/07/06 04:35:52;;;;;;;4.28;2.15;;;;;;;21.85;60.37;99615.25;4308011;33;20175;-93
2023/07/06 04:38:19;;;;;;;5.03;2.15;;;;;;;22.03;60.38;99613.75;4288317;33;20069;-93
2023/07/06 04:40:45;;;;;;;4.50;2.00;;;;;;;22.05;60.38;99618.00;4288537;33;20096;-94
2023/07/06 04:43:11;;;;;;;5.35;1.98;;;;;;;21.88;60.37;99615.00;4284199;33;20238;-93
2023/07/06 04:45:36;;;;;;;3.42;1.95;;;;;;;21.92;60.37;99619.91;4294146;33;20381;-91
2023/07/06 04:48:03;;;;;;;4.15;1.73;;;;;;;21.99;60.37;99618.44;4282105;33;20104;-92
2023/07/06 04:50:31;;;;;;;5.78;1.70;;;;;;;22.02;60.37;99620.03;4294351;33;20112;-93
2023/07/06 04:53:00;;;;;;;5.47;1.75;;;;;;;22.04;60.38;99620.78;4283114;33;20162;-90
2023/07/06 04:55:27;;;;;;;4.75;2.12;;;;;;;22.18;60.37;99624.94;4294270;33;20130;-94
2023/07/06 04:57:54;;;;;;;4.97;2.20;;;;;;;22.24;60.38;99627.06;4281753;33;20454;-93
2023/07/06 05:00:25;;;;;;;4.75;1.70;;;;;;;22.05;60.37;99627.75;4294008;33;20092;-91
2023/07/06 05:03:07;;;;;;;6.10;1.98;;;;;;;22.01;60.37;99627.13;4283679;33;20142;-95
2023/07/06 05:06:41;;;;;;;;;;;;;;;;;;;;;
2023/07/06 05:20:45;;;;;;;;;;;;;;;;;;;;;
2023/07/06 05:27:11;;;;;;;4.22;2.28;;;;;;;21.10;60.33;99642.34;4204334;34;20843;-96
2023/07/06 05:29:37;;;;;;;9.48;2.60;;;;;;;21.15;60.32;99648.09;4229873;33;20177;-94
2023/07/06 05:32:41;;;;;;;;;;;;;;;;;;;;;
2023/07/06 05:36:03;;;;;;;;;;;;;;;;;;;;;
2023/07/06 05:38:29;;;;;;;3.25;1.60;;;;;;;21.01;60.33;99674.78;4273341;33;36311;-95
2023/07/06 06:16:35;;;;;;;6.78;3.10;;;;;;;21.51;60.35;99654.16;4482484;27;20349;-88
2023/07/06 06:19:01;;;;;;;10.02;3.30;;;;;;;21.30;60.33;99664.66;4308923;33;20434;-90
2023/07/06 06:21:30;;;;;;;7.03;3.12;;;;;;;21.54;60.34;99665.37;4308929;33;20084;-89
2023/07/06 06:23:57;;;;;;;9.10;2.85;;;;;;;21.84;60.37;99661.25;4320942;33;20096;-91
2023/07/06 06:26:23;;;;;;;5.78;2.60;;;;;;;21.90;60.37;99660.75;4306484;33;20108;-90
2023/07/06 06:28:49;;;;;;;5.35;2.90;;;;;;;21.74;60.36;99656.66;4306385;33;20164;-91
2023/07/06 06:31:14;;;;;;;5.85;2.80;;;;;;;21.82;60.37;99655.25;4294412;33;20131;-89
2023/07/06 06:33:40;;;;;;;5.85;2.80;;;;;;;21.98;60.37;99648.56;4306322;33;20533;-90
2023/07/06 06:37:08;;;;;;;;;;;;;;;;;;;;;
2023/07/06 06:43:07;;;;;;;8.30;2.90;;;;;;;22.52;60.40;99665.44;4687480;27;20105;-91
2023/07/06 06:50:34;;;;;;;;;;;;;;;;;;;;;
2023/07/06 07:08:05;;;;;;;6.60;2.28;;;;;;;23.30;60.44;99670.34;4134058;34;20489;-94
2023/07/06 07:11:08;;;;;;;4.28;2.10;;;;;;;23.51;60.45;99671.13;4125045;34;20146;-95
2023/07/06 07:13:38;;;;;;;6.50;2.37;;;;;;;23.38;60.44;99667.00;4138723;34;20137;-92
2023/07/06 07:49:19;;;;;;;5.45;2.60;;;;;;;23.65;60.45;99664.63;4772726;27;20078;31
2023/07/06 07:52:16;;;;;;;6.55;2.55;;;;;;;23.94;60.47;99654.12;4322065;33;20076;-94
2023/07/06 07:57:14;;;;;;;8.02;3.03;;;;;;;24.09;60.48;99647.41;4319267;33;20159;-95
2023/07/06 07:59:40;;;;;;;6.28;2.83;;;;;;;24.30;60.49;99643.81;4282496;33;20122;-94
2023/07/06 08:02:19;;;;;;;5.40;2.95;;;;;;;24.51;60.50;99646.34;4291032;33;20135;-95
2023/07/06 08:05:13;;;;;;;6.80;2.70;;;;;;;24.75;60.50;99644.94;4295824;33;20087;-95
2023/07/06 08:08:37;;;;;;;5.62;2.75;;;;;;;25.00;60.53;99640.03;4306915;33;20095;-95
2023/07/06 08:11:05;;;;;;;9.55;2.33;;;;;;;25.45;60.54;99639.31;4295464;33;20124;-95
2023/07/06 08:13:31;;;;;;;5.37;3.30;;;;;;;25.60;60.55;99637.84;4294766;33;20099;-92
2023/07/06 08:16:32;;;;;;;4.40;2.03;;;;;;;25.64;60.56;99633.91;4306552;33;20100;-94
2023/07/06 08:18:57;;;;;;;5.05;2.53;;;;;;;25.80;60.57;99634.16;4312098;33;20079;-94
2023/07/06 08:21:23;;;;;;;5.65;3.12;;;;;;;25.71;60.57;99640.34;4324226;33;20195;-93
2023/07/06 08:23:49;;;;;;;10.05;2.42;;;;;;;25.97;60.58;99635.97;4312065;33;20457;-93
2023/07/06 08:26:16;;;;;;;5.68;2.85;;;;;;;25.75;60.57;99647.06;4314484;33;20082;-96
2023/07/06 08:28:41;;;;;;;6.12;2.78;;;;;;;25.55;60.56;99642.78;4339833;33;20109;-96
2023/07/06 08:31:31;;;;;;;4.57;2.58;;;;;;;25.65;60.56;99643.59;4316345;33;20131;-96
2023/07/06 08:34:32;;;;;;;4.77;2.60;;;;;;;25.58;60.56;99650.50;4335924;32;20068;-96
2023/07/06 08:36:57;;;;;;;6.53;2.58;;;;;;;25.44;60.55;99650.97;4346131;33;20141;-96
2023/07/06 08:39:33;;;;;;;4.05;2.53;;;;;;;25.13;60.53;99658.37;4318645;33;20100;-96
2023/07/06 08:42:08;;;;;;;7.07;2.75;;;;;;;25.31;60.54;99646.78;4711512;27;20046;-96
2023/07/06 08:45:13;;;;;;;6.15;2.50;;;;;;;25.45;60.54;99655.31;4314238;28;20100;-93
2023/07/06 08:48:27;;;;;;;5.43;3.20;;;;;;;25.27;60.54;99658.72;4294820;33;20152;-95
2023/07/06 08:51:03;;;;;;;6.87;3.62;;;;;;;25.44;60.54;99656.28;4303380;33;20139;-93
2023/07/06 08:53:53;;;;;;;10.02;2.90;;;;;;;25.65;60.56;99651.59;4305548;33;20116;-92
2023/07/06 08:56:21;;;;;;;7.70;3.50;;;;;;;26.06;60.58;99647.59;4297093;33;20112;-93
2023/07/06 08:58:46;;;;;;;7.78;2.42;;;;;;;26.43;60.60;99643.97;4295513;33;20457;-92
2023/07/06 09:01:14;;;;;;;6.53;2.95;;;;;;;26.72;60.62;99636.53;4316210;33;20147;-92
2023/07/06 09:03:55;;;;;;;4.03;2.35;;;;;;;26.83;60.63;99638.16;4322772;33;20104;-91
2023/07/06 09:06:23;;;;;;;7.60;2.58;;;;;;;27.03;60.63;99628.97;4318046;33;20122;-91
2023/07/06 09:08:50;;;;;;;5.15;2.80;;;;;;;27.32;60.64;99633.97;4317503;33;20092;-90
2023/07/06 09:11:16;;;;;;;5.07;2.40;;;;;;;27.57;60.65;99637.59;4292765;33;20404;-90
2023/07/06 09:13:46;;;;;;;9.98;2.90;;;;;;;27.63;60.66;99637.00;4318625;33;20160;-90
2023/07/06 09:16:11;;;;;;;6.05;2.95;;;;;;;27.64;60.66;99635.16;4292779;33;20103;-91
2023/07/06 09:18:37;;;;;;;9.38;3.03;;;;;;;27.84;60.68;99644.59;4305002;33;20148;-92
2023/07/06 09:21:02;;;;;;;9.50;2.72;;;;;;;28.03;60.68;99638.13;4304980;33;20126;-91
2023/07/06 09:23:29;;;;;;;7.07;2.87;;;;;;;28.12;60.68;99639.81;4304990;33;20164;-92
2023/07/06 09:25:54;;;;;;;6.28;2.75;;;;;;;27.99;60.68;99639.47;4293102;33;20445;-91
2023/07/06 09:28:23;;;;;;;8.07;2.95;;;;;;;27.59;60.66;99640.13;4292992;33;20127;-93
2023/07/06 09:30:49;;;;;;;5.75;2.40;;;;;;;27.60;60.67;99636.44;4293257;33;20100;-92
2023/07/06 09:33:20;;;;;;;7.05;2.97;;;;;;;27.78;60.67;99645.25;4292970;33;20120;-92
2023/07/06 09:36:15;;;;;;;5.10;2.60;;;;;;;27.90;60.67;99640.41;4304697;33;20108;-93
2023/07/06 09:38:45;;;;;;;6.12;2.90;;;;;;;28.03;60.68;99643.47;4296343;33;20061;-96
2023/07/06 09:48:37;;;;;;;5.70;2.35;;;;;;;27.78;60.68;99659.47;4278646;33;20120;-94
2023/07/06 09:51:15;;;;;;;4.65;2.42;;;;;;;27.77;60.67;99656.94;4264159;33;20231;-94
2023/07/06 09:56:54;;;;;;;5.68;3.25;;;;;;;27.95;60.68;99656.84;4309912;33;20073;-95
2023/07/06 09:59:27;;;;;;;5.55;2.90;;;;;;;27.95;60.68;99646.16;4307910;33;20508;-94
2023/07/06 10:02:02;;;;;;;5.43;3.20;;;;;;;28.04;60.69;99642.47;4296343;33;20182;-95
2023/07/06 10:04:49;;;;;;;6.75;2.72;;;;;;;28.27;60.70;99646.25;4307839;33;20107;-94
2023/07/06 10:07:23;;;;;;;6.78;3.05;;;;;;;28.53;60.71;99650.63;4307912;33;20146;-93
2023/07/06 10:13:27;;;;;;;6.18;2.83;;;;;;;28.81;60.73;99649.28;4376301;27;20114;-93
2023/07/06 10:16:03;;;;;;;5.80;2.58;;;;;;;29.12;60.74;99643.25;4324103;33;20095;-91
2023/07/06 10:18:35;;;;;;;3.92;2.53;;;;;;;29.37;60.76;99633.31;4336216;33;20107;-92
2023/07/06 10:21:27;;;;;;;4.30;2.50;;;;;;;29.20;60.75;99637.88;4311953;33;20090;-89
2023/07/06 10:24:12;;;;;;;5.53;3.30;;;;;;;29.20;60.74;99633.34;4338040;33;20087;-90
2023/07/06 10:26:44;;;;;;;6.10;2.78;;;;;;;28.94;60.74;99630.03;4324068;33;20078;-90
2023/07/06 10:29:11;;;;;;;5.70;2.40;;;;;;;28.98;60.73;99628.69;4319803;33;20092;-90
2023/07/06 10:31:59;;;;;;;2.80;2.05;;;;;;;29.09;60.73;99622.97;4323544;33;20115;-89
2023/07/06 10:34:43;;;;;;;7.07;2.55;;;;;;;29.19;60.75;99617.44;4321578;33;20448;-88
2023/07/06 10:37:11;;;;;;;7.43;3.65;;;;;;;29.47;60.75;99617.88;4334672;33;20486;-87
2023/07/06 10:39:45;;;;;;;6.72;3.08;;;;;;;29.50;60.75;99614.84;4321329;33;20115;-86
2023/07/06 10:42:20;;;;;;;5.80;3.35;;;;;;;29.25;60.76;99612.22;4334842;33;20461;-86
2023/07/06 10:44:50;;;;;;;6.85;2.62;;;;;;;29.22;60.74;99622.44;4309052;33;20098;-87
2023/07/06 10:47:28;;;;;;;9.95;2.90;;;;;;;28.92;60.73;99624.84;4321596;33;20110;-87
2023/07/06 10:50:08;;;;;;;4.35;3.03;;;;;;;29.24;60.75;99629.31;4334391;33;20127;-88
2023/07/06 10:52:43;;;;;;;6.30;3.17;;;;;;;29.54;60.76;99624.19;4334604;33;20108;-89
2023/07/06 10:55:24;;;;;;;8.40;2.83;;;;;;;29.58;60.77;99631.75;4297345;33;20087;-88
2023/07/06 10:57:53;;;;;;;8.48;2.97;;;;;;;29.90;60.79;99643.34;4322511;33;20092;-87
2023/07/06 11:00:20;;;;;;;6.30;3.25;;;;;;;30.00;60.79;99630.50;4321306;33;20130;-88
2023/07/06 11:02:46;;;;;;;5.95;3.03;;;;;;;29.73;60.78;99639.06;4308984;33;20731;-87
2023/07/06 11:05:28;;;;;;;8.23;2.42;;;;;;;29.58;60.77;99638.97;4308538;33;20111;-87
2023/07/06 11:08:05;;;;;;;5.20;2.08;;;;;;;29.58;60.77;99641.66;4333337;33;20111;-86
2023/07/06 11:10:39;;;;;;;5.70;2.62;;;;;;;29.52;60.77;99635.09;4333302;33;20100;-87
2023/07/06 11:13:04;;;;;;;5.00;2.35;;;;;;;29.27;60.75;99642.37;4320397;33;20512;-87
2023/07/06 11:15:39;;;;;;;5.40;2.70;;;;;;;29.34;60.76;99651.41;4334109;33;20100;-88
2023/07/06 11:18:30;;;;;;;5.70;2.60;;;;;;;29.19;60.75;99628.16;4334176;33;20331;-90
2023/07/06 11:20:58;;;;;;;3.92;2.45;;;;;;;29.23;60.75;99633.00;4334249;33;20429;-89
2023/07/06 11:23:35;;;;;;;4.68;2.95;;;;;;;29.39;60.76;99629.44;4334395;33;20445;-89
2023/07/06 11:26:03;;;;;;;5.40;2.75;;;;;;;29.38;60.76;99622.41;4308918;33;20113;-87
2023/07/06 11:28:29;;;;;;;3.55;2.10;;;;;;;29.47;60.76;99624.06;4321190;33;20149;-86
2023/07/06 11:31:06;;;;;;;3.08;2.40;;;;;;;29.42;60.77;99615.69;4334256;33;20083;-87
2023/07/06 11:33:41;;;;;;;3.75;2.37;;;;;;;29.64;60.78;99614.94;4321019;33;20130;-88
2023/07/06 11:36:08;;;;;;;5.12;2.50;;;;;;;29.84;60.78;99615.34;4321012;33;20147;-88
2023/07/06 11:38:44;;;;;;;3.58;2.58;;;;;;;29.65;60.78;99623.84;4308462;33;20484;-87
2023/07/06 11:41:25;;;;;;;5.07;2.60;;;;;;;29.88;60.79;99611.31;4308802;33;20115;-87
2023/07/06 11:44:10;;;;;;;5.47;2.37;;;;;;;30.15;60.80;99612.69;4309409;33;20108;-87
2023/07/06 11:46:49;;;;;;;6.62;2.47;;;;;;;30.09;60.80;99617.94;4308568;33;20468;-85
2023/07/06 11:49:31;;;;;;;6.43;2.37;;;;;;;30.00;60.79;99616.25;4321086;33;20441;-85
2023/07/06 11:51:58;;;;;;;7.28;2.72;;;;;;;30.14;60.80;99616.38;4309050;33;20108;-87
2023/07/06 11:54:43;;;;;;;3.55;2.33;;;;;;;30.05;60.80;99625.50;4310371;33;20103;-86
2023/07/06 11:57:44;;;;;;;5.03;2.50;;;;;;;30.04;60.79;99613.06;4329329;33;20122;-86
2023/07/06 12:03:03;;;;;;;3.95;2.30;;;;;;;29.74;60.78;99617.41;4311971;33;20100;-90
2023/07/06 12:05:35;;;;;;;3.72;2.30;;;;;;;30.05;60.80;99620.13;4320050;33;20604;-90
2023/07/06 12:08:03;;;;;;;6.57;2.17;;;;;;;30.35;60.81;99612.22;4321164;33;20088;-88
2023/07/06 12:10:30;;;;;;;5.68;2.30;;;;;;;30.55;60.82;99606.16;4320580;33;20431;-87
2023/07/06 12:12:56;;;;;;;3.85;2.67;;;;;;;30.66;60.83;99606.78;4308557;33;20172;-87
2023/07/06 12:15:22;;;;;;;5.72;2.70;;;;;;;30.71;60.83;99607.88;4334076;33;20088;-86
2023/07/06 12:17:55;;;;;;;4.93;2.20;;;;;;;30.73;60.83;99602.34;4308591;33;20400;-87
2023/07/06 12:20:21;;;;;;;4.20;2.17;;;;;;;30.75;60.82;99614.56;4320697;33;20155;-87
2023/07/06 12:22:52;;;;;;;3.28;2.20;;;;;;;30.67;60.83;99597.69;4308590;33;20123;-88
2023/07/06 12:25:18;;;;;;;3.67;2.37;;;;;;;30.61;60.83;99593.88;4308346;33;20103;-87
2023/07/06 12:27:44;;;;;;;5.00;2.42;;;;;;;30.73;60.83;99592.41;4308504;33;20087;-88
2023/07/06 12:30:11;;;;;;;4.68;2.10;;;;;;;30.73;60.83;99592.41;4308261;33;20118;-88
2023/07/06 12:32:37;;;;;;;4.00;2.55;;;;;;;30.88;60.84;99580.88;4308213;33;20182;-89
2023/07/06 12:35:04;;;;;;;4.87;2.37;;;;;;;30.92;60.85;99577.62;4320243;33;20148;-88
2023/07/06 12:37:29;;;;;;;4.22;2.47;;;;;;;30.98;60.85;99584.94;4333912;33;20084;-88
2023/07/06 12:39:55;;;;;;;6.75;2.53;;;;;;;30.82;60.83;99579.75;4319386;33;25008;-87
2023/07/06 12:42:20;;;;;;;7.75;2.75;;;;;;;30.68;60.84;99577.88;4304556;33;20175;-85
2023/07/06 12:44:50;;;;;;;4.97;2.62;;;;;;;30.83;60.84;99576.88;4315321;33;20151;-87
2023/07/06 12:47:20;;;;;;;3.85;2.58;;;;;;;30.91;60.84;99586.69;4306612;33;20099;-86
2023/07/06 12:49:45;;;;;;;;;;;;;;;30.71;60.84;99585.56;4331171;33;20158;-86
2023/07/06 12:52:10;;;;;;;3.67;2.12;;;;;;;30.62;60.83;99584.81;4330917;33;20003;-88
2023/07/06 12:54:36;;;;;;;4.93;2.53;;;;;;;30.46;60.82;99569.63;4330376;33;20233;-89
2023/07/06 12:57:15;;;;;;;7.53;2.30;;;;;;;30.34;60.81;99589.06;4330472;33;20107;-90
2023/07/06 12:59:41;;;;;;;6.93;2.42;;;;;;;30.22;60.81;99578.72;4319536;33;20121;-88
2023/07/06 13:02:20;;;;;;;7.47;2.40;;;;;;;30.23;60.81;99583.06;4330820;33;20127;-86
2023/07/06 13:04:47;;;;;;;4.53;2.60;;;;;;;30.48;60.82;99578.34;4321296;33;20100;-85
2023/07/06 13:07:17;;;;;;;3.45;2.30;;;;;;;30.52;60.83;99573.44;4340545;33;20441;-86
2023/07/06 13:09:42;;;;;;;;;;;;;;;30.55;60.83;99575.78;4330799;33;20103;-86
2023/07/06 13:12:09;;;;;;;4.60;2.30;;;;;;;30.62;60.83;99574.06;4330636;33;20006;-87
2023/07/06 13:14:39;;;;;;;4.12;2.45;;;;;;;30.69;60.84;99580.38;4330991;33;20112;-86
2023/07/06 13:17:13;;;;;;;3.47;2.50;;;;;;;30.93;60.85;99575.75;4332147;33;20137;-86
2023/07/06 13:19:42;;;;;;;5.78;2.97;;;;;;;30.89;60.84;99580.69;4332303;33;20179;-88
2023/07/06 13:22:11;;;;;;;4.78;2.30;;;;;;;30.69;60.84;99574.16;4321213;33;20095;-89
2023/07/06 13:24:39;;;;;;;4.37;2.58;;;;;;;30.75;60.83;99571.56;4321112;33;20103;-87
2023/07/06 13:27:06;;;;;;;4.05;2.40;;;;;;;30.54;60.83;99574.94;4343448;33;20106;-87
2023/07/06 13:29:34;;;;;;;5.20;2.67;;;;;;;30.68;60.84;99572.50;4333788;33;20095;-88
2023/07/06 13:32:00;;;;;;;4.20;2.62;;;;;;;30.92;60.85;99571.41;4320505;33;20104;-87
2023/07/06 13:34:25;;;;;;;4.45;2.67;;;;;;;30.85;60.85;99568.63;4320438;33;20104;-86
2023/07/06 13:36:53;;;;;;;5.20;2.78;;;;;;;30.88;60.84;99575.50;4320109;33;20170;-86
2023/07/06 13:39:19;;;;;;;6.78;3.22;;;;;;;30.82;60.84;99572.53;4317297;33;20092;-86
2023/07/06 13:41:44;;;;;;;4.68;2.45;;;;;;;31.12;60.85;99577.91;4332320;33;20092;-87
2023/07/06 13:44:10;;;;;;;7.35;2.67;;;;;;;31.00;60.85;99569.50;4319620;33;26405;-88
2023/07/06 13:46:36;;;;;;;4.07;2.58;;;;;;;30.79;60.84;99562.16;4323243;33;20114;-88
2023/07/06 13:49:01;;;;;;;5.45;2.33;;;;;;;30.57;60.83;99565.69;4332308;33;20088;-90
2023/07/06 13:51:28;;;;;;;3.28;2.20;;;;;;;30.70;60.84;99567.78;4307907;33;20095;-86
2023/07/06 13:53:54;;;;;;;5.18;2.12;;;;;;;30.69;60.84;99571.47;4333327;33;20091;-86
2023/07/06 13:56:20;;;;;;;4.12;2.62;;;;;;;30.71;60.84;99564.06;4319820;33;20474;-87
2023/07/06 13:58:45;;;;;;;5.90;2.50;;;;;;;30.71;60.84;99564.91;4319785;33;20104;-87
2023/07/06 14:01:13;;;;;;;3.83;2.35;;;;;;;30.78;60.85;99565.03;4307227;33;22100;-87
2023/07/06 14:03:39;;;;;;;7.32;2.37;;;;;;;30.79;60.84;99569.38;4332138;33;20133;-88
2023/07/06 14:06:05;;;;;;;4.70;2.30;;;;;;;30.89;60.84;99577.16;4332960;33;20445;-88
2023/07/06 14:08:32;;;;;;;4.47;2.30;;;;;;;30.67;60.83;99576.19;4315494;33;20108;-88
2023/07/06 14:10:57;;;;;;;2.80;2.20;;;;;;;30.54;60.83;99579.50;4312906;33;20179;-86
2023/07/06 14:13:24;;;;;;;4.82;2.40;;;;;;;30.66;60.83;99583.41;4326788;33;20246;-87